Time;durP1;ratioP1;P1;durP2;ratioP2;P2;SDS_P1;SDS_P2;PMS_P1;PMS_P2;Temp;Humidity;BMP_temperature;BMP_pressure;BME280_temperature;BME280_humidity;BME280_pressure;Samples;Min_cycle;Max_cycle;Signal;HPM_P1;HPM_P2
2022/10/26 00:00:26;;;;;;;;;;;15.80;99.90;;;;;;4936796;29;19953;-79
2022/10/26 00:02:54;;;;;;;;;;;15.80;99.90;;;;;;4936742;29;19950;-79
2022/10/26 00:05:21;;;;;;;;;;;15.70;99.90;;;;;;4936224;29;20044;-80
2022/10/26 00:07:47;;;;;;;;;;;15.70;99.90;;;;;;4936265;29;19970;-79
2022/10/26 00:10:12;;;;;;;;;;;15.70;99.90;;;;;;4936166;29;20393;-77
2022/10/26 00:12:38;;;;;;;;;;;15.70;99.90;;;;;;4936093;29;19933;-79
2022/10/26 00:15:04;;;;;;;;;;;15.50;99.90;;;;;;4936101;29;19907;-79
2022/10/26 00:17:30;;;;;;;;;;;15.60;99.90;;;;;;4937298;29;20002;-79
2022/10/26 00:19:56;;;;;;;;;;;15.60;99.90;;;;;;4939952;29;19989;-79
2022/10/26 00:22:22;;;;;;;;;;;15.70;99.90;;;;;;4940161;29;19911;-79
2022/10/26 00:24:47;;;;;;;;;;;15.80;99.90;;;;;;4939683;29;19926;-78
2022/10/26 00:27:13;;;;;;;;;;;15.90;99.90;;;;;;4939932;29;19910;-78
2022/10/26 00:29:39;;;;;;;;;;;15.80;99.90;;;;;;4939842;29;20388;-79
2022/10/26 00:32:05;;;;;;;;;;;15.90;99.90;;;;;;4939939;29;20042;-78
2022/10/26 00:34:31;;;;;;;;;;;15.90;99.90;;;;;;4939895;29;20354;-79
2022/10/26 00:36:57;;;;;;;;;;;16.00;99.90;;;;;;4939844;29;19907;-78
2022/10/26 00:39:22;;;;;;;;;;;16.00;99.90;;;;;;4939764;29;19911;-79
2022/10/26 00:41:48;;;;;;;;;;;16.10;99.90;;;;;;4939684;29;19906;-80
2022/10/26 00:44:32;;;;;;;;;;;16.00;99.90;;;;;;4939754;29;19907;-79
2022/10/26 00:46:57;;;;;;;;;;;16.00;99.90;;;;;;4939500;29;19974;-78
2022/10/26 00:49:23;;;;;;;;;;;15.90;99.90;;;;;;4939533;29;20380;-78
2022/10/26 00:51:51;;;;;;;;;;;15.90;99.90;;;;;;4939365;29;19906;-79
2022/10/26 00:54:17;;;;;;;;;;;15.90;99.90;;;;;;4939309;29;19918;-79
2022/10/26 00:56:43;;;;;;;;;;;15.80;99.90;;;;;;4939359;29;19911;-78
2022/10/26 00:59:10;;;;;;;;;;;15.80;99.90;;;;;;4939868;29;20357;-79
2022/10/26 01:01:38;;;;;;;;;;;15.80;99.90;;;;;;4939292;29;20013;-79
2022/10/26 01:04:03;;;;;;;;;;;15.80;99.90;;;;;;4939331;29;19939;-78
2022/10/26 01:06:29;;;;;;;;;;;15.80;99.90;;;;;;4939276;29;19907;-78
2022/10/26 01:08:55;;;;;;;;;;;15.80;99.90;;;;;;4939135;29;19914;-78
2022/10/26 01:11:20;;;;;;;;;;;15.80;99.90;;;;;;4939345;29;19911;-77
2022/10/26 01:13:47;;;;;;;;;;;15.80;99.90;;;;;;4921891;29;19917;-78
2022/10/26 01:16:25;;;;;;;;;;;15.80;99.90;;;;;;4939001;29;19911;-79
2022/10/26 01:19:25;;;;;;;;;;;15.80;99.90;;;;;;4939394;29;19962;-79
2022/10/26 01:21:56;;;;;;;;;;;15.90;99.90;;;;;;4939015;29;19959;-79
2022/10/26 01:24:22;;;;;;;;;;;15.80;99.90;;;;;;4938657;29;20365;-79
2022/10/26 01:27:03;;;;;;;;;;;15.90;99.90;;;;;;4939031;29;19954;-79
2022/10/26 01:29:31;;;;;;;;;;;15.90;99.90;;;;;;4937894;29;19907;-78
2022/10/26 01:32:17;;;;;;;;;;;15.90;99.90;;;;;;4938707;29;20426;-80
2022/10/26 01:35:09;;;;;;;;;;;15.90;99.90;;;;;;4937981;29;19915;-79
2022/10/26 01:37:44;;;;;;;;;;;15.90;99.90;;;;;;4933332;29;19906;-79
2022/10/26 01:40:16;;;;;;;;;;;15.90;99.90;;;;;;4938778;29;20388;-79
2022/10/26 01:42:45;;;;;;;;;;;15.90;99.90;;;;;;4938637;29;19996;-79
2022/10/26 01:45:12;;;;;;;;;;;15.80;99.90;;;;;;4938475;29;20284;-79
2022/10/26 01:47:38;;;;;;;;;;;15.80;99.90;;;;;;4938473;29;19946;-79
2022/10/26 01:50:04;;;;;;;;;;;15.80;99.90;;;;;;4938595;29;19907;-79
2022/10/26 01:52:30;;;;;;;;;;;16.00;99.90;;;;;;4938286;29;19906;-79
2022/10/26 01:54:59;;;;;;;;;;;16.00;99.90;;;;;;4938407;29;19914;-78
2022/10/26 01:57:25;;;;;;;;;;;16.10;99.90;;;;;;4938341;29;19913;-78
2022/10/26 02:00:02;;;;;;;;;;;16.20;99.90;;;;;;4938819;29;19993;-78
2022/10/26 02:02:28;;;;;;;;;;;16.10;99.90;;;;;;4938321;29;19906;-78
2022/10/26 02:04:56;;;;;;;;;;;16.10;99.90;;;;;;4938141;29;19907;-79
2022/10/26 02:07:25;;;;;;;;;;;16.00;99.90;;;;;;4938139;29;19936;-79
2022/10/26 02:10:09;;;;;;;;;;;16.10;99.90;;;;;;4938217;29;19907;-78
2022/10/26 02:12:41;;;;;;;;;;;16.00;99.90;;;;;;4938029;29;19918;-79
2022/10/26 02:15:09;;;;;;;;;;;16.00;99.90;;;;;;4937952;29;19907;-79
2022/10/26 02:17:47;;;;;;;;;;;15.90;99.90;;;;;;4938132;29;19907;-79
2022/10/26 02:20:16;;;;;;;;;;;15.90;99.90;;;;;;4937811;29;19906;-79
2022/10/26 02:22:46;;;;;;;;;;;15.90;99.90;;;;;;4937904;29;19929;-78
2022/10/26 02:25:14;;;;;;;;;;;16.00;99.90;;;;;;4937298;29;19918;-78
2022/10/26 02:27:42;;;;;;;;;;;16.00;99.90;;;;;;4937708;29;19907;-78
2022/10/26 02:30:09;;;;;;;;;;;15.90;99.90;;;;;;4937672;29;19913;-78
2022/10/26 02:32:36;;;;;;;;;;;15.90;99.90;;;;;;4937575;29;19914;-79
2022/10/26 02:35:02;;;;;;;;;;;15.90;99.90;;;;;;4937581;29;19937;-79
2022/10/26 02:37:29;;;;;;;;;;;15.90;99.90;;;;;;4937947;29;19907;-79
2022/10/26 02:39:56;;;;;;;;;;;15.80;99.90;;;;;;4937365;29;19906;-78
2022/10/26 02:42:22;;;;;;;;;;;15.80;99.90;;;;;;4937622;29;19906;-79
2022/10/26 02:44:50;;;;;;;;;;;15.80;99.90;;;;;;4937484;29;19907;-78
2022/10/26 02:47:16;;;;;;;;;;;15.80;99.90;;;;;;4937471;29;19907;-78
2022/10/26 02:49:42;;;;;;;;;;;15.70;99.90;;;;;;4937049;29;19953;-79
2022/10/26 02:52:22;;;;;;;;;;;15.70;99.90;;;;;;4937257;29;19938;-79
2022/10/26 02:54:51;;;;;;;;;;;15.70;99.90;;;;;;4937253;29;19918;-79
2022/10/26 02:57:23;;;;;;;;;;;15.80;99.90;;;;;;4937095;29;19907;-79
2022/10/26 02:59:49;;;;;;;;;;;15.70;99.90;;;;;;4937946;29;19906;-80
2022/10/26 03:02:18;;;;;;;;;;;15.80;99.90;;;;;;4936933;29;19922;-78
2022/10/26 03:04:43;;;;;;;;;;;15.80;99.90;;;;;;4936999;29;19914;-78
2022/10/26 03:07:09;;;;;;;;;;;15.90;99.90;;;;;;4937227;29;19906;-80
2022/10/26 03:09:34;;;;;;;;;;;16.00;99.90;;;;;;4936979;29;20001;-80
2022/10/26 03:12:00;;;;;;;;;;;15.90;99.90;;;;;;4936914;29;20334;-80
2022/10/26 03:14:26;;;;;;;;;;;15.90;99.90;;;;;;4936809;29;19921;-78
2022/10/26 03:16:51;;;;;;;;;;;15.90;99.90;;;;;;4936925;29;19911;-80
2022/10/26 03:19:17;;;;;;;;;;;15.80;99.90;;;;;;4936864;29;19906;-79
2022/10/26 03:21:42;;;;;;;;;;;15.90;99.90;;;;;;4936751;29;19957;-79
2022/10/26 03:24:08;;;;;;;;;;;15.80;99.90;;;;;;4936687;29;19919;-79
2022/10/26 03:26:34;;;;;;;;;;;15.80;99.90;;;;;;4936761;29;19906;-80
2022/10/26 03:28:59;;;;;;;;;;;15.80;99.90;;;;;;4937021;29;19913;-80
2022/10/26 03:31:25;;;;;;;;;;;15.70;99.90;;;;;;4936875;29;19954;-78
2022/10/26 03:33:51;;;;;;;;;;;15.70;99.90;;;;;;4936598;29;19910;-78
2022/10/26 03:36:16;;;;;;;;;;;15.70;99.90;;;;;;4936606;29;19907;-79
2022/10/26 03:38:42;;;;;;;;;;;15.80;99.90;;;;;;4936602;29;19906;-79
2022/10/26 03:41:07;;;;;;;;;;;15.70;99.90;;;;;;4919408;29;19906;-79
2022/10/26 03:43:33;;;;;;;;;;;15.80;99.90;;;;;;4936656;29;19918;-79
2022/10/26 03:45:58;;;;;;;;;;;15.80;99.90;;;;;;4936494;29;19907;-78
2022/10/26 03:48:24;;;;;;;;;;;15.80;99.90;;;;;;4936555;29;20296;-79
2022/10/26 03:50:49;;;;;;;;;;;15.80;99.90;;;;;;4936430;29;19935;-80
2022/10/26 03:53:15;;;;;;;;;;;15.70;99.90;;;;;;4935774;29;19911;-79
2022/10/26 03:55:43;;;;;;;;;;;15.80;99.90;;;;;;4936821;29;20369;-79
2022/10/26 03:58:09;;;;;;;;;;;15.70;99.90;;;;;;4936373;29;19906;-79
2022/10/26 04:00:35;;;;;;;;;;;15.70;99.90;;;;;;4936896;29;19914;-79
2022/10/26 04:03:00;;;;;;;;;;;15.60;99.90;;;;;;4936333;29;19954;-79
2022/10/26 04:05:27;;;;;;;;;;;15.60;99.90;;;;;;4936298;29;19914;-79
2022/10/26 04:07:55;;;;;;;;;;;15.60;99.90;;;;;;4936713;29;19906;-79
2022/10/26 04:10:21;;;;;;;;;;;15.70;99.90;;;;;;4936392;29;19913;-79
2022/10/26 04:12:47;;;;;;;;;;;15.70;99.90;;;;;;4936264;29;19911;-78
2022/10/26 04:15:12;;;;;;;;;;;15.70;99.90;;;;;;4936362;29;20020;-80
2022/10/26 04:17:38;;;;;;;;;;;15.70;99.90;;;;;;4936252;29;19913;-80
2022/10/26 04:20:04;;;;;;;;;;;15.60;99.90;;;;;;4936154;29;19914;-79
2022/10/26 04:22:29;;;;;;;;;;;15.60;99.90;;;;;;4936318;29;20005;-79
2022/10/26 04:24:55;;;;;;;;;;;15.50;99.90;;;;;;4935775;29;19958;-78
2022/10/26 04:27:20;;;;;;;;;;;15.50;99.90;;;;;;4936064;29;19906;-79
2022/10/26 04:29:46;;;;;;;;;;;15.50;99.90;;;;;;4936009;29;20353;-79
2022/10/26 04:32:11;;;;;;;;;;;15.40;99.90;;;;;;4935974;29;19907;-79
2022/10/26 04:34:37;;;;;;;;;;;15.40;99.90;;;;;;4936108;29;19917;-78
2022/10/26 04:37:02;;;;;;;;;;;15.40;99.90;;;;;;4936205;29;20373;-78
2022/10/26 04:39:28;;;;;;;;;;;15.40;99.90;;;;;;4936003;29;19906;-79
2022/10/26 04:41:54;;;;;;;;;;;15.40;99.90;;;;;;4936076;29;20357;-79
2022/10/26 04:44:19;;;;;;;;;;;15.40;99.90;;;;;;4936221;29;20432;-78
2022/10/26 04:46:45;;;;;;;;;;;15.30;99.90;;;;;;4936113;29;19906;-78
2022/10/26 04:49:10;;;;;;;;;;;15.40;99.90;;;;;;4935849;29;20289;-79
2022/10/26 04:51:36;;;;;;;;;;;15.40;99.90;;;;;;4935890;29;19996;-78
2022/10/26 04:54:02;;;;;;;;;;;15.30;99.90;;;;;;4918496;29;20009;-79
2022/10/26 04:56:28;;;;;;;;;;;15.30;99.90;;;;;;4936060;29;19917;-78
2022/10/26 04:58:53;;;;;;;;;;;15.20;99.90;;;;;;4935925;29;19911;-78
2022/10/26 05:01:19;;;;;;;;;;;15.20;99.90;;;;;;4935747;29;19906;-78
2022/10/26 05:03:48;;;;;;;;;;;15.30;99.90;;;;;;4937029;29;19946;-78
2022/10/26 05:06:13;;;;;;;;;;;15.20;99.90;;;;;;4939256;29;19962;-79
2022/10/26 05:08:39;;;;;;;;;;;15.30;99.90;;;;;;4939393;29;19911;-77
2022/10/26 05:11:04;;;;;;;;;;;15.30;99.90;;;;;;4939097;29;20356;-79
2022/10/26 05:13:30;;;;;;;;;;;15.40;99.90;;;;;;4939035;29;19925;-78
2022/10/26 05:15:55;;;;;;;;;;;15.30;99.90;;;;;;4921977;29;19954;-79
2022/10/26 05:18:21;;;;;;;;;;;15.20;99.90;;;;;;4939037;29;20377;-79
2022/10/26 05:20:48;;;;;;;;;;;15.30;99.90;;;;;;4939169;29;19907;-79
2022/10/26 05:23:17;;;;;;;;;;;15.30;99.90;;;;;;4938847;29;19907;-79
2022/10/26 05:25:43;;;;;;;;;;;15.50;99.90;;;;;;4938914;29;20393;-79
2022/10/26 05:28:13;;;;;;;;;;;15.50;99.90;;;;;;4938921;29;19961;-78
2022/10/26 05:30:42;;;;;;;;;;;15.50;99.90;;;;;;4938672;29;20361;-78
2022/10/26 05:33:09;;;;;;;;;;;15.40;99.90;;;;;;4938759;29;20005;-79
2022/10/26 05:35:35;;;;;;;;;;;15.60;99.90;;;;;;4938601;29;20373;-79
2022/10/26 05:38:16;;;;;;;;;;;15.70;99.90;;;;;;4938684;29;19934;-78
2022/10/26 05:40:48;;;;;;;;;;;15.60;99.90;;;;;;4939194;29;19907;-78
2022/10/26 05:43:13;;;;;;;;;;;15.60;99.90;;;;;;4938583;29;19918;-79
2022/10/26 05:45:39;;;;;;;;;;;15.60;99.90;;;;;;4938863;29;19906;-79
2022/10/26 05:48:05;;;;;;;;;;;15.70;99.90;;;;;;4938713;29;20385;-77
2022/10/26 05:50:30;;;;;;;;;;;15.80;99.90;;;;;;4938481;29;19907;-78
2022/10/26 05:52:56;;;;;;;;;;;15.80;99.90;;;;;;4938324;29;19910;-78
2022/10/26 05:55:21;;;;;;;;;;;15.90;99.90;;;;;;4938363;29;19907;-79
2022/10/26 05:57:47;;;;;;;;;;;15.90;99.90;;;;;;4938290;29;19906;-78
2022/10/26 06:00:20;;;;;;;;;;;16.00;99.90;;;;;;4938408;29;19911;-80
2022/10/26 06:02:57;;;;;;;;;;;16.10;99.90;;;;;;4938150;29;19907;-78
2022/10/26 06:05:25;;;;;;;;;;;16.20;99.90;;;;;;4938160;29;19953;-79
2022/10/26 06:07:51;;;;;;;;;;;16.10;99.90;;;;;;4921041;29;19953;-78
2022/10/26 06:10:17;;;;;;;;;;;16.20;99.90;;;;;;4938017;29;19934;-80
2022/10/26 06:12:44;;;;;;;;;;;16.30;99.90;;;;;;4938097;29;19925;-79
2022/10/26 06:15:18;;;;;;;;;;;16.30;99.90;;;;;;4937490;29;19907;-79
2022/10/26 06:17:56;;;;;;;;;;;16.40;99.90;;;;;;4938480;29;19911;-79
2022/10/26 06:20:21;;;;;;;;;;;16.40;99.90;;;;;;4937812;29;19978;-78
2022/10/26 06:22:47;;;;;;;;;;;16.40;99.90;;;;;;4937805;29;20362;-79
2022/10/26 06:25:18;;;;;;;;;;;16.40;99.90;;;;;;4937386;29;19978;-79
2022/10/26 06:28:03;;;;;;;;;;;16.40;99.90;;;;;;4937759;29;19907;-77
2022/10/26 06:30:29;;;;;;;;;;;16.40;99.90;;;;;;4937875;29;20366;-79
2022/10/26 06:32:55;;;;;;;;;;;16.40;99.90;;;;;;4937504;29;19910;-79
2022/10/26 06:35:30;;;;;;;;;;;16.40;99.90;;;;;;4937541;29;19957;-78
2022/10/26 06:37:59;;;;;;;;;;;16.40;99.90;;;;;;4937878;29;20365;-79
2022/10/26 06:40:25;;;;;;;;;;;16.40;99.90;;;;;;4938101;29;19973;-79
2022/10/26 06:42:51;;;;;;;;;;;16.30;99.90;;;;;;4937361;29;19975;-79
2022/10/26 06:45:16;;;;;;;;;;;16.30;99.90;;;;;;4937386;29;20400;-79
2022/10/26 06:47:57;;;;;;;;;;;16.30;99.90;;;;;;4937257;29;19911;-79
2022/10/26 06:50:32;;;;;;;;;;;16.30;99.90;;;;;;4937245;29;20401;-80
2022/10/26 06:53:18;;;;;;;;;;;16.40;99.90;;;;;;4937205;29;20390;-79
2022/10/26 06:55:46;;;;;;;;;;;16.40;99.90;;;;;;4937526;29;19913;-78
2022/10/26 06:58:16;;;;;;;;;;;16.40;99.90;;;;;;4937278;29;19906;-79
2022/10/26 07:00:42;;;;;;;;;;;16.50;99.90;;;;;;4937249;29;20333;-80
2022/10/26 07:03:08;;;;;;;;;;;16.60;99.90;;;;;;4937036;29;20288;-78
2022/10/26 07:05:34;;;;;;;;;;;16.60;99.90;;;;;;4936911;29;19906;-77
2022/10/26 07:07:59;;;;;;;;;;;16.70;99.90;;;;;;4936931;29;19989;-78
2022/10/26 07:10:25;;;;;;;;;;;16.60;99.90;;;;;;4936945;29;19913;-80
2022/10/26 07:12:51;;;;;;;;;;;16.70;99.90;;;;;;4936795;29;19917;-79
2022/10/26 07:15:16;;;;;;;;;;;16.60;99.90;;;;;;4936816;29;20373;-79
2022/10/26 07:17:47;;;;;;;;;;;16.70;99.90;;;;;;4936857;29;19997;-79
2022/10/26 07:20:13;;;;;;;;;;;16.80;99.90;;;;;;4936633;29;20394;-79
2022/10/26 07:22:39;;;;;;;;;;;17.00;99.90;;;;;;4936711;29;20404;-78
2022/10/26 07:25:05;;;;;;;;;;;17.00;99.90;;;;;;4936472;29;19953;-78
2022/10/26 07:27:31;;;;;;;;;;;17.00;99.90;;;;;;4935810;29;19938;-79
2022/10/26 07:29:56;;;;;;;;;;;17.10;99.90;;;;;;4936620;29;19946;-79
2022/10/26 07:32:22;;;;;;;;;;;17.20;99.90;;;;;;4936584;29;19906;-79
2022/10/26 07:34:48;;;;;;;;;;;17.50;99.90;;;;;;4936461;29;20362;-79
2022/10/26 07:37:13;;;;;;;;;;;17.60;99.90;;;;;;4936537;29;19914;-79
2022/10/26 07:39:39;;;;;;;;;;;17.70;99.90;;;;;;4936606;29;20325;-78
2022/10/26 07:42:05;;;;;;;;;;;18.10;99.90;;;;;;4937013;29;19949;-79
2022/10/26 07:44:30;;;;;;;;;;;18.20;99.90;;;;;;4936467;29;19907;-79
2022/10/26 07:46:57;;;;;;;;;;;18.30;99.90;;;;;;4936376;29;19930;-79
2022/10/26 07:49:22;;;;;;;;;;;18.40;99.90;;;;;;4936738;29;19914;-80
2022/10/26 07:51:48;;;;;;;;;;;18.40;99.90;;;;;;4936395;29;19907;-79
2022/10/26 07:54:13;;;;;;;;;;;18.40;99.90;;;;;;4936245;29;19922;-80
2022/10/26 07:56:39;;;;;;;;;;;18.50;99.90;;;;;;4936297;29;20473;-80
2022/10/26 07:59:04;;;;;;;;;;;18.70;99.90;;;;;;4936322;29;19914;-80
2022/10/26 08:01:30;;;;;;;;;;;18.80;99.90;;;;;;4936288;29;19970;-80
2022/10/26 08:03:56;;;;;;;;;;;18.60;99.90;;;;;;4936482;29;20396;-81
2022/10/26 08:06:21;;;;;;;;;;;18.20;99.90;;;;;;4936515;29;19906;-80
2022/10/26 08:08:47;;;;;;;;;;;18.10;99.90;;;;;;4936297;29;19914;-79
2022/10/26 08:11:13;;;;;;;;;;;18.20;99.90;;;;;;4936191;29;19911;-79
2022/10/26 08:13:39;;;;;;;;;;;18.20;99.90;;;;;;4936160;29;19917;-80
2022/10/26 08:16:05;;;;;;;;;;;18.70;99.90;;;;;;4936523;29;19907;-79
2022/10/26 08:18:31;;;;;;;;;;;18.90;99.90;;;;;;4936260;29;19958;-80
2022/10/26 08:21:08;;;;;;;;;;;18.70;99.90;;;;;;4936372;29;19906;-79
2022/10/26 08:23:33;;;;;;;;;;;18.60;99.90;;;;;;4935961;29;19914;-79
2022/10/26 08:26:00;;;;;;;;;;;18.60;99.90;;;;;;4936544;29;19930;-78
2022/10/26 08:28:26;;;;;;;;;;;18.80;99.90;;;;;;4936068;29;19990;-79
2022/10/26 08:30:52;;;;;;;;;;;19.00;99.90;;;;;;4936183;29;19907;-79
2022/10/26 08:33:17;;;;;;;;;;;19.20;99.90;;;;;;4935986;29;19911;-79
2022/10/26 08:35:43;;;;;;;;;;;19.50;99.90;;;;;;4936001;29;19911;-77
2022/10/26 08:38:08;;;;;;;;;;;19.50;99.90;;;;;;4936808;29;19953;-79
2022/10/26 08:40:36;;;;;;;;;;;19.50;99.90;;;;;;4940307;29;20358;-80
2022/10/26 08:43:20;;;;;;;;;;;19.60;99.90;;;;;;4939738;29;19907;-78
2022/10/26 08:45:49;;;;;;;;;;;19.30;99.90;;;;;;4940025;29;19907;-80
2022/10/26 08:48:17;;;;;;;;;;;18.80;99.90;;;;;;4939657;29;20285;-79
2022/10/26 08:50:49;;;;;;;;;;;18.40;99.90;;;;;;4939563;29;20368;-79
2022/10/26 08:53:33;;;;;;;;;;;18.20;99.90;;;;;;4939428;29;20357;-79
2022/10/26 08:56:05;;;;;;;;;;;18.20;99.90;;;;;;4939669;29;19911;-78
2022/10/26 08:58:35;;;;;;;;;;;18.00;99.90;;;;;;4939607;29;19907;-79
2022/10/26 09:01:06;;;;;;;;;;;18.00;99.90;;;;;;4939385;29;19930;-80
2022/10/26 09:03:32;;;;;;;;;;;17.90;99.90;;;;;;4939299;29;19935;-78
2022/10/26 09:06:08;;;;;;;;;;;17.90;99.90;;;;;;4939301;29;19911;-79
2022/10/26 09:08:37;;;;;;;;;;;17.90;99.90;;;;;;4939457;29;19913;-80
2022/10/26 09:11:08;;;;;;;;;;;17.90;99.90;;;;;;4939480;29;19906;-79
2022/10/26 09:13:34;;;;;;;;;;;18.00;99.90;;;;;;4939095;29;20355;-79
2022/10/26 09:16:13;;;;;;;;;;;18.10;99.90;;;;;;4939083;29;19942;-79
2022/10/26 09:18:38;;;;;;;;;;;18.10;99.90;;;;;;4939318;29;19907;-79
2022/10/26 09:21:16;;;;;;;;;;;17.90;99.90;;;;;;4939121;29;19963;-79
2022/10/26 09:23:54;;;;;;;;;;;17.90;99.90;;;;;;4938682;29;20345;-79
2022/10/26 09:26:37;;;;;;;;;;;18.00;99.90;;;;;;4938856;29;19934;-80
2022/10/26 09:29:05;;;;;;;;;;;17.90;99.90;;;;;;4939768;29;20361;-78
2022/10/26 09:31:34;;;;;;;;;;;18.10;99.90;;;;;;4938707;29;19913;-79
2022/10/26 09:34:01;;;;;;;;;;;18.30;99.90;;;;;;4938821;29;19917;-79
2022/10/26 09:36:27;;;;;;;;;;;18.40;99.90;;;;;;4938494;29;20373;-79
2022/10/26 09:38:56;;;;;;;;;;;17.90;99.90;;;;;;4939085;29;19906;-79
2022/10/26 09:41:28;;;;;;;;;;;17.50;99.90;;;;;;4939467;29;19906;-78
2022/10/26 09:44:11;;;;;;;;;;;17.50;99.90;;;;;;4938619;29;19910;-79
2022/10/26 09:46:57;;;;;;;;;;;17.60;99.90;;;;;;4938498;29;19906;-79
2022/10/26 09:49:30;;;;;;;;;;;17.80;99.90;;;;;;4924847;29;19910;-77
2022/10/26 09:51:55;;;;;;;;;;;18.20;99.90;;;;;;4938413;29;19907;-78
2022/10/26 09:54:21;;;;;;;;;;;19.70;99.90;;;;;;4921210;29;20473;-79
2022/10/26 09:56:50;;;;;;;;;;;20.60;99.90;;;;;;4938382;29;19993;-78
2022/10/26 09:59:17;;;;;;;;;;;21.10;99.90;;;;;;4938749;29;19906;-79
2022/10/26 10:01:43;;;;;;;;;;;20.90;99.90;;;;;;4938263;29;19914;-78
2022/10/26 10:04:10;;;;;;;;;;;20.60;99.90;;;;;;4938332;29;19907;-79
2022/10/26 10:06:35;;;;;;;;;;;20.20;99.90;;;;;;4938210;29;19910;-79
2022/10/26 10:09:11;;;;;;;;;;;19.70;99.90;;;;;;4938102;29;19986;-78
2022/10/26 10:11:54;;;;;;;;;;;19.80;99.90;;;;;;4938135;29;19907;-80
2022/10/26 10:14:20;;;;;;;;;;;21.40;99.90;;;;;;4937991;29;19918;-79
2022/10/26 10:16:56;;;;;;;;;;;21.00;99.90;;;;;;4937890;29;19934;-79
2022/10/26 10:19:26;;;;;;;;;;;21.30;99.90;;;;;;4938151;29;19907;-79
2022/10/26 10:21:54;;;;;;;;;;;21.40;99.90;;;;;;4938107;29;19931;-79
2022/10/26 10:24:19;;;;;;;;;;;21.50;99.90;;;;;;4937715;29;20405;-80
2022/10/26 10:26:57;;;;;;;;;;;20.90;99.90;;;;;;4937840;29;19907;-79
2022/10/26 10:29:29;;;;;;;;;;;20.70;99.90;;;;;;4937802;29;19907;-80
2022/10/26 10:31:56;;;;;;;;;;;20.20;99.90;;;;;;4937712;29;20285;-78
2022/10/26 10:34:22;;;;;;;;;;;19.80;99.90;;;;;;4937606;29;19911;-79
2022/10/26 10:36:48;;;;;;;;;;;19.70;99.90;;;;;;4937634;29;19913;-79
2022/10/26 10:39:27;;;;;;;;;;;19.90;99.90;;;;;;4937567;29;19917;-79
2022/10/26 10:41:53;;;;;;;;;;;20.40;99.90;;;;;;4938281;29;19961;-79
2022/10/26 10:44:23;;;;;;;;;;;20.80;99.90;;;;;;4937585;29;20405;-80
2022/10/26 10:46:49;;;;;;;;;;;20.80;99.90;;;;;;4937547;29;19907;-80
2022/10/26 10:49:20;;;;;;;;;;;21.70;99.90;;;;;;4937394;29;19913;-80
2022/10/26 10:51:47;;;;;;;;;;;22.10;99.90;;;;;;4937537;29;20436;-79
2022/10/26 10:54:21;;;;;;;;;;;21.90;99.90;;;;;;4937477;29;19911;-80
2022/10/26 10:57:07;;;;;;;;;;;22.20;99.90;;;;;;4937333;29;19907;-78
2022/10/26 10:59:44;;;;;;;;;;;21.80;99.90;;;;;;4936658;29;20073;-80
2022/10/26 11:02:19;;;;;;;;;;;24.00;99.90;;;;;;4937307;29;20329;-80
2022/10/26 11:04:56;;;;;;;;;;;25.80;99.90;;;;;;4937281;29;19913;-80
2022/10/26 11:07:23;;;;;;;;;;;25.00;99.90;;;;;;4937401;29;19915;-80
2022/10/26 11:09:50;;;;;;;;;;;24.60;99.90;;;;;;4937069;29;19907;-78
2022/10/26 11:12:17;;;;;;;;;;;23.20;99.90;;;;;;4937015;29;20331;-80
2022/10/26 11:14:44;;;;;;;;;;;22.40;99.90;;;;;;4936971;29;19911;-79
2022/10/26 11:17:21;;;;;;;;;;;22.70;99.90;;;;;;4936973;29;19914;-79
2022/10/26 11:19:58;;;;;;;;;;;22.50;99.90;;;;;;4936919;29;19907;-79
2022/10/26 11:22:29;;;;;;;;;;;23.00;99.90;;;;;;4936699;29;19917;-80
2022/10/26 11:25:00;;;;;;;;;;;22.60;99.90;;;;;;4936753;29;19993;-80
2022/10/26 11:27:26;;;;;;;;;;;23.90;99.90;;;;;;4936993;29;19911;-80
2022/10/26 11:30:10;;;;;;;;;;;23.10;99.90;;;;;;4936739;29;19993;-79
2022/10/26 11:32:52;;;;;;;;;;;22.70;99.90;;;;;;4936661;29;19907;-81
2022/10/26 11:35:30;;;;;;;;;;;23.60;99.90;;;;;;4936626;29;19906;-79
2022/10/26 11:38:07;;;;;;;;;;;24.60;99.90;;;;;;4936845;29;19934;-81
2022/10/26 11:40:44;;;;;;;;;;;28.70;93.40;;;;;;4936592;29;19906;-81
2022/10/26 11:43:13;;;;;;;;;;;29.00;91.20;;;;;;4937324;29;19913;-80
2022/10/26 11:45:56;;;;;;;;;;;27.60;92.70;;;;;;4936589;29;19957;-80
2022/10/26 11:48:23;;;;;;;;;;;28.10;90.80;;;;;;4936544;29;19994;-81
2022/10/26 11:50:52;;;;;;;;;;;27.60;92.20;;;;;;4936382;29;20001;-79
2022/10/26 11:53:20;;;;;;;;;;;26.40;91.50;;;;;;4936326;29;20317;-78
2022/10/26 11:55:50;;;;;;;;;;;26.00;93.80;;;;;;4936332;29;19913;-77
2022/10/26 11:58:15;;;;;;;;;;;25.50;95.50;;;;;;4936297;29;20301;-77
2022/10/26 12:01:01;;;;;;;;;;;24.90;96.10;;;;;;4936164;29;19914;-78
2022/10/26 12:03:36;;;;;;;;;;;23.80;99.20;;;;;;4935655;29;19962;-80
2022/10/26 12:06:02;;;;;;;;;;;23.90;99.90;;;;;;4919220;29;20387;-80
2022/10/26 12:08:49;;;;;;;;;;;23.90;99.90;;;;;;4936242;29;19993;-79
2022/10/26 12:11:31;;;;;;;;;;;24.00;99.90;;;;;;4936422;29;20278;-80
2022/10/26 12:14:00;;;;;;;;;;;25.10;98.30;;;;;;4938076;29;20274;-80
2022/10/26 12:16:44;;;;;;;;;;;24.20;98.90;;;;;;4940206;29;19934;-79
2022/10/26 12:19:16;;;;;;;;;;;23.00;99.90;;;;;;4940535;29;19906;-79
2022/10/26 12:21:42;;;;;;;;;;;22.30;99.90;;;;;;4939803;29;20369;-80
2022/10/26 12:24:28;;;;;;;;;;;21.70;99.90;;;;;;4939900;29;19970;-79
2022/10/26 12:27:01;;;;;;;;;;;21.30;99.90;;;;;;4939977;29;19910;-79
2022/10/26 12:29:27;;;;;;;;;;;20.80;99.90;;;;;;4939832;29;20377;-79
2022/10/26 12:31:52;;;;;;;;;;;20.80;99.90;;;;;;4939934;29;19913;-80
2022/10/26 12:34:45;;;;;;;;;;;22.50;99.90;;;;;;4939803;29;20358;-80
2022/10/26 12:37:21;;;;;;;;;;;23.60;99.90;;;;;;4910192;29;19907;-80
2022/10/26 12:39:47;;;;;;;;;;;23.90;99.90;;;;;;4939959;29;20353;-80
2022/10/26 12:42:15;;;;;;;;;;;25.70;99.90;;;;;;4940277;29;19913;-81
2022/10/26 12:44:41;;;;;;;;;;;28.80;91.70;;;;;;4939737;29;20046;-81
2022/10/26 12:47:08;;;;;;;;;;;30.50;84.50;;;;;;4939700;29;19990;-81
2022/10/26 12:49:52;;;;;;;;;;;31.60;76.00;;;;;;4939732;29;19918;-79
2022/10/26 12:52:24;;;;;;;;;;;32.90;71.90;;;;;;4939608;29;20384;-81
2022/10/26 12:55:19;;;;;;;;;;;33.10;67.50;;;;;;4939444;29;19918;-81
2022/10/26 12:57:56;;;;;;;;;;;33.20;66.00;;;;;;4923252;29;19933;-81
2022/10/26 13:00:23;;;;;;;;;;;32.90;63.80;;;;;;4939583;29;20333;-80
2022/10/26 13:03:08;;;;;;;;;;;30.20;67.10;;;;;;4939636;29;19911;-78
2022/10/26 13:05:51;;;;;;;;;;;27.50;76.10;;;;;;4939361;29;19954;-77
2022/10/26 13:08:17;;;;;;;;;;;25.80;89.10;;;;;;4939377;29;19914;-77
2022/10/26 13:10:59;;;;;;;;;;;24.80;93.60;;;;;;4939715;29;19910;-80
2022/10/26 13:13:25;;;;;;;;;;;25.70;91.80;;;;;;4939306;29;20009;-80
2022/10/26 13:15:51;;;;;;;;;;;24.80;94.30;;;;;;4939081;29;19949;-79
2022/10/26 13:18:18;;;;;;;;;;;24.00;96.00;;;;;;4939012;29;19906;-79
2022/10/26 13:21:12;;;;;;;;;;;23.50;98.10;;;;;;4939026;29;19938;-80
2022/10/26 13:23:43;;;;;;;;;;;23.20;99.90;;;;;;4935854;29;20435;-80
2022/10/26 13:26:13;;;;;;;;;;;23.10;99.90;;;;;;4937811;29;19910;-80
2022/10/26 13:28:38;;;;;;;;;;;24.40;99.90;;;;;;4938902;29;19913;-80
2022/10/26 13:31:04;;;;;;;;;;;31.80;84.00;;;;;;4939082;29;19910;-82
2022/10/26 13:33:36;;;;;;;;;;;34.80;68.60;;;;;;4939049;29;20365;-81
2022/10/26 13:36:05;;;;;;;;;;;35.00;62.00;;;;;;4938895;29;19907;-81
2022/10/26 13:38:33;;;;;;;;;;;35.90;58.80;;;;;;4938824;29;19913;-80
2022/10/26 13:41:05;;;;;;;;;;;37.00;55.20;;;;;;4938720;29;20059;-78
2022/10/26 13:43:31;;;;;;;;;;;36.10;54.80;;;;;;4939300;29;19907;-79
2022/10/26 13:46:02;;;;;;;;;;;35.90;53.80;;;;;;4938633;29;20281;-78
2022/10/26 13:48:32;;;;;;;;;;;34.30;53.00;;;;;;4938555;29;19958;-78
2022/10/26 13:51:18;;;;;;;;;;;32.90;57.10;;;;;;4938537;29;20270;-77
2022/10/26 13:53:50;;;;;;;;;;;29.50;62.10;;;;;;4938451;29;19974;-77
2022/10/26 13:56:34;;;;;;;;;;;29.10;66.20;;;;;;4938454;29;19984;-77
2022/10/26 13:59:11;;;;;;;;;;;27.00;68.90;;;;;;4938635;29;19911;-78
2022/10/26 14:01:36;;;;;;;;;;;26.20;77.20;;;;;;4938299;29;19908;-78
2022/10/26 14:04:16;;;;;;;;;;;30.80;68.20;;;;;;4938402;29;19914;-78
2022/10/26 14:06:44;;;;;;;;;;;32.00;63.10;;;;;;4938150;29;19949;-78
2022/10/26 14:09:14;;;;;;;;;;;31.70;61.40;;;;;;4938177;29;19907;-78
2022/10/26 14:11:45;;;;;;;;;;;31.40;60.90;;;;;;4938365;29;20282;-78
2022/10/26 14:14:16;;;;;;;;;;;28.60;63.00;;;;;;4938230;29;19917;-77
2022/10/26 14:16:45;;;;;;;;;;;27.40;67.30;;;;;;4938134;29;20305;-78
2022/10/26 14:19:21;;;;;;;;;;;29.10;66.50;;;;;;4938155;29;19914;-76
2022/10/26 14:21:48;;;;;;;;;;;31.10;60.70;;;;;;4938031;29;19938;-78
2022/10/26 14:24:26;;;;;;;;;;;32.60;58.20;;;;;;4937655;29;20397;-78
2022/10/26 14:26:51;;;;;;;;;;;32.00;57.10;;;;;;4937902;29;19907;-77
2022/10/26 14:29:21;;;;;;;;;;;31.70;57.90;;;;;;4937880;29;19907;-79